Flugplatz Grafenwohr Army Air Field

Bericht für ETIC

vom 20.10. um 18:56 UTC

kein Wind

Sichtweite 10 km oder mehr

keine Wolken

Temperatur 9.5°C

Taupunkt 9.5°C

Luftfeuchtigkeit 100%

Luftdruck 1011 hPa

ETIC 201856Z AUTO 00000KT 9999 CLR 10/10 A2985 RMK AO2 SLP117 T00950095 $

Prognose für ETIC

vom 20.10. um 00:00 UTC

Zwischen 00:00 UTC und 00:00 UTC

Wind 6 kt aus 110°

Sichtweite 10 km oder mehr

aufgelockert bewölkt in 4000 ft


Am 21.10. zwischen 00:00 und 00:00 UTC übergehend zu

variable Windrichtung mit 6 kt

Sichtweite 10 km oder mehr

aufgelockert bewölkt in 5000 ft

aufgebrochene Bewölkung in 10000 ft

TAF ETIC 201410Z 2014/2120 11006KT 9999 SCT040 QNH2985INS BECMG 2109/2110 VRB06KT 9999 SCT050 BKN100 QNH3007INS TX20/2014Z TN04/2103Z
Impressum